x

Yucatan Basin - 120 Nm Ese Of Cozumel, Mx (42056) Wave Buoy

12:50 - Mon 31st Aug 2015 All times are CDT. -5 hours from GMT.

  • Sig Wave height 3.3ft
  • Swell Direction
  • Peak Period 6s
  • Average Period 5s
  • Wind
    16mph, 18mph gusts
  • Sea Temp 87°f
  • Luft Temp 86°f
  • Sea Pressure 1013.7mb
  •  Yucatan Basin - 120 Nm Ese Of Cozumel, Mx
  •  Yucatan Basin - 120 Nm Ese Of Cozumel, Mx

More Historic Weather Station data

Upgrade to MSW Pro to gain access to the past 30 days of data for over 8000 Wavebouys and Weather Stations around the globe.

Join Pro

Comparision Forecast

View Surf forecast
   
Mo 08/31 12:50 3.5ft 6s 5s 16 18 mph 1013.7mb 87f 86f
So 08/30 11:50 3.5ft 6s 5s 16 20 mph 1013.4mb 87f 85f
10:50 3.5ft 7s 5s 16 18 mph 1013.6mb 87f 85f
9:50 3ft 5s 4s 16 18 mph 1013.6mb 87f 85f
8:50 2.5ft 5s 4s 18 20 mph 1013.4mb 87f 86f
7:50 2.5ft 4s 4s 16 18 mph 1012.9mb 87f 86f
6:50 2.5ft 7s 4s 13 16 mph 1012.6mb 87f 86f
5:50 2.5ft 6s 4s 11 13 mph 1012.6mb 87f 85f
4:50 2.5ft 6s 4s 11 13 mph 1012.4mb 87f 85f
3:50 2.5ft 6s 4s 4
mph
1012.3mb 87f 84f
2:50 2.5ft 6s 5s 4 9 mph 1012.8mb 87f 83f
1:50 2.5ft 6s 5s 16 18 mph 1013.5mb 86f 83f
12:50 2.5ft 6s 5s 11 13 mph 1014.7mb 86f 84f
11:50 2.5ft 7s 5s 18 20 mph 1014.7mb 86f 82f
10:50 2.5ft 7s 5s 7 9 mph 1014.4mb 87f 85f
9:50 2.5ft 7s 5s 4 7 mph 1013.9mb 87f 86f
8:50 2.5ft 7s 5s 4
mph
1013mb 86f 86f
7:50 2.5ft 6s 5s 2 4 mph 1012.5mb 86f 85f
6:50 2.5ft 7s 5s 7 9 mph 1012.2mb 86f 85f
5:50 2.5ft 6s 5s 4
mph
1011.7mb 86f 85f
4:50 2.5ft 6s 5s 7
mph
1011mb 86f 85f
3:50 2.5ft 7s 5s 4 7 mph 1010.3mb 86f 85f
2:50 2.5ft 6s 5s 2 4 mph 1010.8mb 87f 85f
1:50 2.5ft 6s 5s 7 9 mph 1011.5mb 87f 84f
12:50 2.5ft 6s 4s 7 9 mph 1012.3mb 87f 86f
Sa 08/29 11:50 2.5ft 6s 5s 9
mph
1013.2mb 87f 86f
10:50 3ft 6s 5s 11 13 mph 1012.8mb 87f 86f
9:50 2.5ft 6s 5s 11 13 mph 1012mb 87f 86f
8:50 2.5ft 6s 5s 13 16 mph 1012mb 87f 86f
7:50 3ft 6s 5s 11 13 mph 1011.6mb 87f 87f
6:50 2.5ft 6s 5s 11 13 mph 1011.1mb 87f 87f
5:50 2.5ft 6s 4s 7 9 mph 1010.8mb 87f 86f
4:50 2.5ft 6s 5s 13 16 mph 1010.6mb 88f 86f
3:50 2.5ft 5s 5s 9 11 mph 1011.2mb 87f 87f
2:50 2.5ft 5s 4s 9 11 mph 1012mb 88f 87f
1:50 2.5ft 5s 4s 9 11 mph 1012.7mb 87f 87f
12:50 2ft 5s 4s 7 9 mph 1013.4mb 87f 87f
11:50 2.5ft 4s 4s 7 9 mph 1013.7mb 87f 87f
10:50 2.5ft 5s 4s 11
mph
1013.9mb 87f 87f
9:50 2.5ft 5s 4s 11 13 mph 1014mb 87f 87f
8:50 2.5ft 5s 4s 13 16 mph 1013.6mb 87f 87f
7:50 2.5ft 4s 4s 16 18 mph 1012.9mb 86f 86f
6:50 2.5ft 4s 4s 16 20 mph 1012.2mb 86f 86f
5:50 2.5ft 4s 4s 16 20 mph 1011.9mb 87f 86f
4:50 2ft 4s 4s 18 20 mph 1011.8mb 87f 86f
3:50 2ft 3s 4s 9 11 mph 1012.3mb 87f 85f
2:50 2ft 4s 4s 11 13 mph 1012.6mb 87f 85f
1:50 1.6ft 3s 4s 13 16 mph 1013.2mb 87f 86f
12:50 1.6ft 4s 4s 11 13 mph 1013.8mb 87f 85f
Fr 08/28 11:50 1.6ft 6s 4s 9 11 mph 1014.2mb 87f 85f
10:50 1.3ft 4s 4s 11 13 mph 1014.8mb 86f 87f
9:50 1.6ft 7s 4s 9 11 mph 1014.6mb 87f 86f
8:50 1.6ft 3s 4s 11 13 mph 1013.8mb 87f 85f
7:50 1.6ft 4s 4s 11
mph
1013mb 87f 87f
6:50 1.6ft 4s 4s 9 11 mph 1012.2mb 87f 87f
5:50 1.6ft 4s 4s 7 11 mph 1012mb 87f 86f
4:50 1.6ft 4s 4s 13 20 mph 1011.8mb 87f 82f
3:50 1.6ft 3s 4s 9 11 mph 1011.7mb 87f 87f
2:50 1.6ft 4s 4s 9 11 mph 1011.9mb 87f 87f
1:50 1.6ft 4s 4s 7 9 mph 1012.6mb 88f 86f
12:50 1.6ft 7s 4s 9 11 mph 1013.4mb 87f 86f
11:50 1.6ft 7s 4s 7 9 mph 1014mb 87f 86f
10:50 1.6ft 3s 4s 11
mph
1014.1mb 87f 86f
9:50 1.6ft 7s 4s 11
mph
1014.1mb 87f 86f
8:50 1.6ft 7s 4s 11 13 mph 1013.5mb 86f 86f
7:50 1.6ft 7s 4s 11
mph
1013mb 86f 86f
6:50 1.6ft 7s 4s 11 13 mph 1012.7mb 86f 85f
5:50 1.6ft 7s 4s 11 13 mph 1012.5mb 86f 86f
4:50 1.6ft 6s 4s 11 13 mph 1011.8mb 87f 85f
3:50 1.6ft 6s 4s 9 11 mph 1012mb 87f 85f
2:50 1.3ft 7s 4s 11
mph
1012.6mb 87f 86f
1:50 1.6ft 6s 4s 11 13 mph 1013.5mb 87f 86f
12:50 1.3ft 6s 5s 9 11 mph 1014.4mb 87f 86f
Do 08/27 11:50 1.3ft 7s 5s 9 11 mph 1014.9mb 86f 86f
10:50 1.3ft 7s 5s 9 11 mph 1014.8mb 87f 86f
9:50 1.3ft 7s 5s 7 9 mph 1014.8mb 87f 86f
8:50 1ft 7s 5s 7 9 mph 1014mb 87f 86f
7:50 1.3ft 6s 5s 7 9 mph 1013.2mb 87f 86f
6:50 1.3ft 7s 5s 4 9 mph 1012.6mb 88f 86f
5:50 1.3ft 6s 5s 4 7 mph 1012.3mb 89f 86f
4:50 1ft 7s 5s 4
mph
1012.6mb 88f 86f
3:50 1ft 7s 5s  -  2 mph 1012.6mb 89f 86f
2:50 1ft 7s 5s  -  2 mph 1013.4mb 89f 86f
1:50 1ft 6s 5s 4
mph
1014.1mb 88f 86f
12:50 1ft 7s 5s 4 7 mph 1014.6mb 88f 86f
11:50 1ft 7s 5s 4 7 mph 1015.1mb 88f 86f
10:50 1ft 7s 5s 4 7 mph 1015.1mb 87f 85f
9:50 1ft 7s 5s 7 9 mph 1014.7mb 87f 85f
8:50 1ft 6s 5s 4 7 mph 1014.2mb 87f 86f
7:50 1ft 7s 5s 2 4 mph 1014mb 87f 85f
6:50 1ft 6s 5s 2 4 mph 1013.2mb 87f 85f